Time;durP1;ratioP1;P1;durP2;ratioP2;P2;SDS_P1;SDS_P2;PMS_P1;PMS_P2;Temp;Humidity;BMP_temperature;BMP_pressure;BME280_temperature;BME280_humidity;BME280_pressure;Samples;Min_cycle;Max_cycle;Signal;HPM_P1;HPM_P2
2022/01/12 00:00:59;;;;;;;3.78;2.08;;;21.00;44.00;;;;;;4968180;28;20047;-86
2022/01/12 00:03:25;;;;;;;4.53;1.80;;;20.90;43.90;;;;;;4952170;29;20039;-87
2022/01/12 00:05:50;;;;;;;3.80;1.77;;;21.50;44.30;;;;;;4951401;29;20137;-86
2022/01/12 00:08:16;;;;;;;5.13;2.17;;;20.90;43.90;;;;;;4952291;29;20055;-86
2022/01/12 00:10:44;;;;;;;3.95;1.80;;;20.90;44.00;;;;;;4968117;28;20737;-86
2022/01/12 00:13:10;;;;;;;4.50;2.10;;;20.90;44.00;;;;;;4951974;29;20051;-87
2022/01/12 00:15:35;;;;;;;3.70;1.77;;;21.40;44.30;;;;;;4952456;29;20090;-88
2022/01/12 00:18:01;;;;;;;3.88;1.70;;;20.90;44.00;;;;;;4951852;29;20043;-86
2022/01/12 00:20:26;;;;;;;3.60;2.00;;;20.90;44.10;;;;;;4967838;28;20063;-87
2022/01/12 00:22:53;;;;;;;4.10;2.00;;;21.80;44.60;;;;;;4952032;29;20503;-87
2022/01/12 00:33:16;;;;;;;3.58;1.77;;;20.80;44.10;;;;;;4949650;28;20059;-87
2022/01/12 00:35:46;;;;;;;3.65;1.70;;;20.80;44.10;;;;;;4951827;29;20703;-88
2022/01/12 00:38:12;;;;;;;2.95;1.65;;;22.10;44.80;;;;;;4951715;29;20152;-87
2022/01/12 00:40:39;;;;;;;3.97;2.03;;;20.80;44.10;;;;;;4951237;29;20570;-86
2022/01/12 00:43:05;;;;;;;3.38;1.75;;;20.70;44.10;;;;;;4951628;29;20125;-86
2022/01/12 00:45:32;;;;;;;3.83;1.67;;;20.70;44.10;;;;;;4952021;29;20043;-87
2022/01/12 00:47:58;;;;;;;3.28;1.83;;;21.70;44.70;;;;;;4967082;28;20054;-86
2022/01/12 00:50:23;;;;;;;4.85;2.00;;;20.70;44.10;;;;;;4967569;28;20055;-87
2022/01/12 00:52:50;;;;;;;3.88;2.03;;;22.00;44.90;;;;;;4951246;29;20057;-86
2022/01/12 00:55:15;;;;;;;4.28;1.88;;;20.70;44.20;;;;;;4967094;28;20098;-87
2022/01/12 00:57:42;;;;;;;3.70;1.80;;;20.70;44.20;;;;;;4967714;28;20487;-86
2022/01/12 01:00:08;;;;;;;5.57;2.17;;;20.60;44.10;;;;;;4951044;29;20093;-87
2022/01/12 01:02:34;;;;;;;3.67;1.67;;;20.60;44.10;;;;;;4950390;28;20055;-86
2022/01/12 01:05:01;;;;;;;3.67;1.90;;;20.60;44.50;;;;;;4950820;28;20144;-87
2022/01/12 01:07:26;;;;;;;3.40;1.92;;;20.60;44.20;;;;;;4950862;29;20415;-87
2022/01/12 01:10:06;;;;;;;3.95;2.10;;;20.60;44.20;;;;;;4967035;28;20047;-86
2022/01/12 01:12:33;;;;;;;3.80;1.88;;;20.60;44.20;;;;;;4950937;29;20055;-87
2022/01/12 01:15:07;;;;;;;4.30;1.60;;;20.50;44.20;;;;;;4966408;28;20566;-86
2022/01/12 01:25:36;;;;;;;3.97;1.88;;;21.60;44.80;;;;;;4951102;29;20166;-87
2022/01/12 01:28:02;;;;;;;3.50;1.73;;;20.50;44.20;;;;;;4951243;29;20170;-87
2022/01/12 01:30:28;;;;;;;3.33;1.70;;;20.50;44.20;;;;;;4950092;29;20075;-86
2022/01/12 01:32:54;;;;;;;4.18;1.80;;;21.80;45.00;;;;;;4950914;29;20089;-86
2022/01/12 01:35:20;;;;;;;3.60;1.90;;;21.10;44.70;;;;;;4967136;28;20593;-86
2022/01/12 01:37:45;;;;;;;3.88;1.80;;;20.50;44.30;;;;;;4966037;28;20043;-86
2022/01/12 01:40:12;;;;;;;3.80;1.73;;;21.20;44.70;;;;;;4950397;29;20047;-86
2022/01/12 01:43:07;;;;;;;4.22;1.83;;;20.50;44.40;;;;;;4949768;29;20181;-87
2022/01/12 01:53:46;;;;;;;3.10;1.60;;;20.40;44.30;;;;;;4950438;28;20126;-86
2022/01/12 01:56:12;;;;;;;3.38;1.92;;;20.40;44.40;;;;;;4950395;29;20062;-87
2022/01/12 01:58:38;;;;;;;4.18;1.88;;;20.40;44.40;;;;;;4949799;29;20043;-86
2022/01/12 02:01:04;;;;;;;3.83;1.98;;;20.40;44.40;;;;;;4950597;29;20059;-86
2022/01/12 02:03:30;;;;;;;3.30;1.60;;;20.30;44.30;;;;;;4950299;29;20134;-86
2022/01/12 02:05:56;;;;;;;4.05;1.77;;;20.30;44.40;;;;;;4966200;28;20522;-87
2022/01/12 02:08:21;;;;;;;3.47;1.73;;;20.30;44.40;;;;;;4949842;28;20689;-86
2022/01/12 02:10:52;;;;;;;3.28;1.70;;;20.30;44.80;;;;;;4965618;28;20142;-86
2022/01/12 02:13:17;;;;;;;3.65;1.50;;;20.30;44.40;;;;;;4967624;28;20059;-87
2022/01/12 02:15:45;;;;;;;3.85;1.77;;;20.60;44.60;;;;;;4953843;28;20061;-86
2022/01/12 02:40:06;;;;;;;3.10;1.60;;;20.20;44.50;;;;;;4953103;28;20051;-86
2022/01/12 02:42:32;;;;;;;3.05;1.70;;;20.20;44.50;;;;;;4970127;28;20049;-86
2022/01/12 02:56:11;;;;;;;4.35;1.70;;;20.20;44.60;;;;;;4953135;28;20047;-86
2022/01/12 02:58:37;;;;;;;3.42;1.50;;;21.10;45.10;;;;;;4953217;29;20114;-86
2022/01/12 03:01:21;;;;;;;3.10;1.60;;;20.10;44.50;;;;;;4952807;29;20388;-86
2022/01/12 03:03:50;;;;;;;3.10;1.73;;;21.30;45.20;;;;;;4953241;28;20143;-86
2022/01/12 03:06:19;;;;;;;4.65;1.67;;;20.10;44.60;;;;;;4953524;29;20094;-86
2022/01/12 03:08:44;;;;;;;4.00;1.95;;;20.10;44.60;;;;;;4952494;28;20051;-86
2022/01/12 03:11:13;;;;;;;3.25;1.42;;;20.10;44.60;;;;;;4953219;28;20047;-87
2022/01/12 03:13:38;;;;;;;3.15;1.55;;;20.10;44.60;;;;;;4953188;28;20058;-86
2022/01/12 03:16:12;;;;;;;3.30;1.60;;;20.10;44.70;;;;;;4952209;29;20039;-86
2022/01/12 03:18:37;;;;;;;3.35;1.55;;;20.10;44.70;;;;;;4953185;28;20067;-86
2022/01/12 03:21:03;;;;;;;3.47;1.60;;;21.30;45.30;;;;;;4952271;29;20047;-87
2022/01/12 03:23:29;;;;;;;3.78;1.60;;;20.10;44.70;;;;;;4952800;29;20047;-86
2022/01/12 03:25:54;;;;;;;3.70;1.60;;;20.00;44.70;;;;;;4952641;29;20105;-86
2022/01/12 03:28:20;;;;;;;2.72;1.40;;;20.10;44.70;;;;;;4952670;29;20055;-86
2022/01/12 03:30:55;;;;;;;3.33;1.48;;;20.00;44.70;;;;;;4969186;28;20047;-86
2022/01/12 03:39:06;;;;;;;2.63;1.35;;;20.00;44.70;;;;;;4952850;28;20129;-86
2022/01/12 03:41:33;;;;;;;3.80;2.03;;;20.00;44.70;;;;;;4952933;29;20058;-86
2022/01/12 03:43:59;;;;;;;3.35;1.83;;;20.00;44.70;;;;;;4952248;29;20095;-86
2022/01/12 03:46:31;;;;;;;3.17;1.40;;;20.00;44.80;;;;;;4968742;28;20043;-86
2022/01/12 03:48:57;;;;;;;3.00;1.70;;;20.00;44.70;;;;;;4969132;28;20055;-86
2022/01/12 03:51:22;;;;;;;2.95;1.55;;;20.00;44.70;;;;;;4951963;29;20047;-86
2022/01/12 03:53:48;;;;;;;3.47;1.63;;;20.00;44.90;;;;;;4956999;28;20053;-86
2022/01/12 03:56:13;;;;;;;3.00;1.60;;;20.00;44.80;;;;;;4968002;28;20102;-86
2022/01/12 03:58:40;;;;;;;2.35;1.25;;;20.00;44.80;;;;;;4952524;28;20054;-86
2022/01/12 04:01:05;;;;;;;3.10;1.67;;;20.00;44.80;;;;;;4952211;28;20051;-87
2022/01/12 04:03:37;;;;;;;3.38;1.50;;;21.40;45.50;;;;;;4951499;29;20058;-87
2022/01/12 04:08:47;;;;;;;2.25;1.08;;;20.00;44.80;;;;;;4951868;28;20051;-86
2022/01/12 04:11:13;;;;;;;2.60;1.52;;;20.00;44.80;;;;;;4948921;28;20063;-85
2022/01/12 04:13:40;;;;;;;2.80;1.35;;;20.00;44.90;;;;;;4968236;28;20055;-86
2022/01/12 04:16:06;;;;;;;2.70;1.25;;;20.00;44.90;;;;;;4951858;29;20058;-86
2022/01/12 04:18:32;;;;;;;2.60;1.27;;;20.00;45.30;;;;;;4951821;29;20055;-86
2022/01/12 04:21:01;;;;;;;2.47;1.23;;;20.00;44.90;;;;;;4952252;29;20105;-86
2022/01/12 04:23:26;;;;;;;2.50;1.20;;;20.00;45.00;;;;;;4952038;29;20040;-86
2022/01/12 04:25:54;;;;;;;2.50;1.27;;;20.00;45.00;;;;;;4951239;29;20472;-86
2022/01/12 04:28:20;;;;;;;3.28;1.40;;;20.00;45.10;;;;;;4952146;29;20039;-86
2022/01/12 04:30:46;;;;;;;2.78;1.25;;;20.00;45.10;;;;;;4968130;28;20133;-86
2022/01/12 04:33:12;;;;;;;3.00;1.13;;;20.10;45.20;;;;;;4951169;28;20511;-86
2022/01/12 04:35:44;;;;;;;2.63;1.13;;;21.00;45.60;;;;;;4951646;29;20051;-87
2022/01/12 04:38:10;;;;;;;2.65;1.27;;;20.10;45.20;;;;;;4951761;29;20054;-86
2022/01/12 04:40:36;;;;;;;3.30;1.60;;;20.10;45.20;;;;;;4966873;28;20047;-86
2022/01/12 04:43:01;;;;;;;2.22;1.20;;;21.70;46.00;;;;;;4967820;28;20055;-87
2022/01/12 04:48:09;;;;;;;3.00;1.52;;;20.20;45.30;;;;;;4951763;29;20451;-86
2022/01/12 04:50:37;;;;;;;2.25;1.13;;;20.20;45.30;;;;;;4949184;28;20117;-86
2022/01/12 04:53:03;;;;;;;3.08;1.58;;;20.30;45.40;;;;;;4950658;29;20480;-86
2022/01/12 04:55:29;;;;;;;1.92;0.98;;;20.30;45.40;;;;;;4951637;29;20078;-86
2022/01/12 04:57:55;;;;;;;2.33;1.20;;;20.30;45.40;;;;;;4951192;29;20093;-86
2022/01/12 05:00:22;;;;;;;2.30;1.02;;;20.40;45.40;;;;;;4950565;29;20134;-86
2022/01/12 05:13:39;;;;;;;2.38;1.40;;;20.50;45.30;;;;;;4950540;28;20051;-86
2022/01/12 05:16:05;;;;;;;2.17;1.20;;;20.50;45.30;;;;;;4950871;29;20058;-85
2022/01/12 05:18:32;;;;;;;2.92;1.00;;;20.60;45.30;;;;;;4950784;29;20421;-86
2022/01/12 05:21:15;;;;;;;2.53;1.10;;;21.10;45.60;;;;;;4966698;28;20043;-87
2022/01/12 05:23:40;;;;;;;2.60;1.20;;;20.60;45.30;;;;;;4950439;29;20063;-87
2022/01/12 05:26:21;;;;;;;2.38;1.30;;;20.60;45.50;;;;;;4950990;28;20039;-87
2022/01/12 05:29:00;;;;;;;1.70;1.00;;;21.50;45.90;;;;;;4966763;28;20047;-87
2022/01/12 05:31:27;;;;;;;2.30;1.17;;;21.30;45.90;;;;;;4951021;29;20043;-87
2022/01/12 05:34:03;;;;;;;1.95;0.90;;;19.30;44.70;;;;;;4967046;28;20472;-86
2022/01/12 05:36:31;;;;;;;2.55;1.23;;;20.50;45.30;;;;;;4956651;28;20133;-86
2022/01/12 05:39:13;;;;;;;2.17;1.10;;;20.70;45.20;;;;;;4950725;28;20618;-87
2022/01/12 05:41:39;;;;;;;;;;;20.80;45.20;;;;;;4950568;29;20098;-87
2022/01/12 05:44:07;;;;;;;2.05;1.00;;;19.00;44.30;;;;;;4951248;28;19934;-86
2022/01/12 05:46:32;;;;;;;2.13;0.93;;;20.80;45.20;;;;;;4950673;29;20043;-87
2022/01/12 05:51:44;;;;;;;3.05;1.27;;;20.80;45.20;;;;;;4950639;28;20047;-86
2022/01/12 05:54:09;;;;;;;3.25;1.35;;;20.90;45.20;;;;;;4966644;28;20147;-87
2022/01/12 05:56:35;;;;;;;2.60;1.50;;;20.90;45.20;;;;;;4949490;28;20130;-87
2022/01/12 05:59:01;;;;;;;2.15;1.10;;;20.90;45.10;;;;;;4966858;28;20047;-86
2022/01/12 06:01:26;;;;;;;2.53;1.30;;;21.00;45.20;;;;;;4967008;28;20055;-87
2022/01/12 06:03:52;;;;;;;2.03;1.00;;;21.00;45.10;;;;;;4966053;28;20411;-86
2022/01/12 06:06:17;;;;;;;2.42;1.00;;;21.00;45.10;;;;;;4952655;28;20055;-86
2022/01/12 06:08:43;;;;;;;2.55;1.13;;;21.30;45.20;;;;;;4965869;28;20522;-86
2022/01/12 06:11:09;;;;;;;2.45;1.02;;;21.00;45.00;;;;;;4947148;28;20467;-86
2022/01/12 06:13:35;;;;;;;2.35;1.25;;;21.00;45.00;;;;;;4965890;28;20066;-86
2022/01/12 06:16:00;;;;;;;2.42;1.10;;;21.10;45.00;;;;;;4950042;29;20553;-86
2022/01/12 06:18:26;;;;;;;2.67;1.25;;;21.10;45.00;;;;;;4965544;28;20403;-86
2022/01/12 06:20:51;;;;;;;2.03;0.93;;;21.10;45.00;;;;;;4970283;28;20066;-86
2022/01/12 06:23:17;;;;;;;2.80;1.10;;;21.10;45.00;;;;;;4949932;29;20062;-86
2022/01/12 06:25:43;;;;;;;2.72;1.30;;;21.10;45.00;;;;;;4965271;28;20053;-86
2022/01/12 06:29:03;;;;;;;2.25;1.23;;;21.10;45.00;;;;;;4932861;28;20067;-86
2022/01/12 06:31:17;;;;;;;2.22;0.90;;;21.10;45.00;;;;;;4938960;29;20059;-87
2022/01/12 06:33:44;;;;;;;1.92;1.00;;;22.30;45.60;;;;;;4927475;29;20056;-85
2022/01/12 06:36:14;;;;;;;2.65;1.50;;;21.20;45.00;;;;;;4916899;29;20051;-86
2022/01/12 06:38:40;;;;;;;2.20;1.10;;;21.20;44.90;;;;;;4929503;29;20123;-87
2022/01/12 06:41:09;;;;;;;2.88;1.30;;;21.20;45.00;;;;;;4930033;29;20135;-87
2022/01/12 06:43:34;;;;;;;2.25;0.98;;;22.20;45.50;;;;;;4930255;29;20051;-86
2022/01/12 06:46:04;;;;;;;1.95;0.90;;;21.80;45.30;;;;;;4926644;29;20043;-87
2022/01/12 06:48:30;;;;;;;1.77;0.80;;;22.80;46.10;;;;;;4911523;29;20052;-86
2022/01/12 06:50:55;;;;;;;1.55;0.80;;;21.40;45.00;;;;;;4912183;29;20720;-87
2022/01/12 06:53:24;;;;;;;3.33;1.30;;;22.30;45.50;;;;;;4911067;29;20047;-86
2022/01/12 06:55:50;;;;;;;1.92;1.08;;;21.30;45.70;;;;;;4911973;29;20041;-87
2022/01/12 06:58:15;;;;;;;2.03;0.93;;;21.20;45.20;;;;;;4922880;29;20055;-83
2022/01/12 07:00:41;;;;;;;2.28;1.17;;;22.20;45.50;;;;;;4929782;29;20083;-85
2022/01/12 07:03:06;;;;;;;1.67;1.00;;;21.30;44.90;;;;;;4937011;29;20131;-84
2022/01/12 07:05:38;;;;;;;2.40;1.15;;;21.30;44.90;;;;;;4930719;28;20043;-87
2022/01/12 07:08:39;;;;;;;;;;;;;;;;;;;;;
2022/01/12 07:11:11;;;;;;;2.70;1.20;;;21.30;45.50;;;;;;4966900;28;20051;-86
2022/01/12 07:13:36;;;;;;;2.75;1.00;;;18.70;43.60;;;;;;4967846;28;20054;-86
2022/01/12 07:16:02;;;;;;;2.75;1.40;;;21.10;44.80;;;;;;4941400;29;20757;-86
2022/01/12 07:18:43;;;;;;;2.70;1.30;;;21.40;45.20;;;;;;4942635;29;20426;-86
2022/01/12 07:21:09;;;;;;;3.53;1.35;;;18.90;43.80;;;;;;4950943;29;20051;-85
2022/01/12 07:23:40;;;;;;;2.92;1.20;;;19.00;43.70;;;;;;4944282;28;20058;-84
2022/01/12 07:26:12;;;;;;;3.80;1.40;;;22.00;45.10;;;;;;3232524;28;10021478;-86
2022/01/12 07:28:44;;;;;;;3.17;1.42;;;22.20;45.70;;;;;;4935404;28;20058;-86
2022/01/12 07:31:17;;;;;;;2.67;1.40;;;21.10;44.90;;;;;;4959539;28;20154;-87
2022/01/12 07:33:43;;;;;;;2.85;1.42;;;21.00;44.60;;;;;;4945889;29;20047;-86
2022/01/12 07:36:08;;;;;;;3.08;1.48;;;21.40;44.80;;;;;;4952023;28;20059;-86
2022/01/12 07:38:34;;;;;;;3.20;1.52;;;21.40;44.70;;;;;;4952249;29;20434;-86
2022/01/12 07:41:00;;;;;;;3.75;1.48;;;22.50;45.40;;;;;;4952621;29;20047;-87
2022/01/12 07:43:25;;;;;;;3.13;1.40;;;22.80;45.50;;;;;;4967341;28;20559;-86
2022/01/12 07:46:03;;;;;;;3.60;1.70;;;21.00;46.00;;;;;;4952353;29;20055;-86
2022/01/12 07:48:32;;;;;;;4.75;1.58;;;20.10;44.20;;;;;;4951858;29;20482;-85
2022/01/12 07:51:00;;;;;;;3.40;1.55;;;22.80;45.50;;;;;;4951206;29;20121;-86
2022/01/12 07:53:45;;;;;;;2.72;1.27;;;23.10;45.80;;;;;;4951791;29;20404;-86
2022/01/12 07:56:10;;;;;;;3.30;1.30;;;21.50;44.80;;;;;;4951561;28;20086;-82
2022/01/12 08:02:06;;;;;;;3.15;1.70;;;21.50;44.70;;;;;;4941102;28;20055;-86
2022/01/12 08:04:35;;;;;;;3.13;1.33;;;21.30;44.70;;;;;;4966449;28;20055;-85
2022/01/12 08:07:06;;;;;;;2.25;1.23;;;20.90;44.40;;;;;;4951522;29;20076;-85
2022/01/12 08:09:36;;;;;;;3.60;1.60;;;20.20;44.70;;;;;;4924847;29;20059;-85
2022/01/12 08:12:02;;;;;;;3.13;1.60;;;22.50;46.00;;;;;;4944771;28;20714;-85
2022/01/12 08:14:34;;;;;;;3.15;1.42;;;21.30;45.10;;;;;;4949494;28;20047;-85
2022/01/12 08:17:00;;;;;;;3.03;1.60;;;21.40;45.50;;;;;;4950856;28;20613;-85
2022/01/12 08:19:34;;;;;;;3.60;1.35;;;22.30;45.20;;;;;;4947472;29;20139;-85
2022/01/12 08:22:13;;;;;;;3.28;1.60;;;22.60;45.30;;;;;;4950756;28;20078;-84
2022/01/12 08:24:41;;;;;;;4.55;1.60;;;21.30;44.80;;;;;;4948859;28;20130;-85
2022/01/12 08:27:07;;;;;;;3.10;1.58;;;18.80;43.30;;;;;;4951354;28;20070;-85
2022/01/12 08:29:59;;;;;;;3.22;1.52;;;22.00;45.00;;;;;;4928123;29;20806;-83
2022/01/12 08:32:52;;;;;;;4.28;1.90;;;21.30;44.80;;;;;;4939235;28;20059;-86
2022/01/12 08:35:18;;;;;;;3.63;1.65;;;22.40;45.30;;;;;;4938226;29;20047;-80
2022/01/12 08:37:44;;;;;;;4.15;2.03;;;21.20;44.40;;;;;;4941877;28;20857;-81
2022/01/12 08:40:11;;;;;;;4.05;2.13;;;21.20;44.60;;;;;;4950314;28;20054;-82
2022/01/12 08:42:37;;;;;;;3.78;2.15;;;21.20;44.60;;;;;;4958566;28;20051;-81
2022/01/12 08:45:03;;;;;;;5.38;2.47;;;21.20;44.60;;;;;;4949646;28;20054;-82
2022/01/12 08:47:33;;;;;;;6.30;3.08;;;21.20;44.60;;;;;;4709978;28;10009411;-82
2022/01/12 08:49:59;;;;;;;5.80;2.70;;;21.40;44.80;;;;;;4964280;28;20280;-84
2022/01/12 08:52:25;;;;;;;7.50;2.95;;;21.20;44.70;;;;;;4945168;28;20043;-85
2022/01/12 08:54:50;;;;;;;5.32;2.63;;;21.20;44.70;;;;;;4942375;29;20541;-84
2022/01/12 08:57:16;;;;;;;5.68;2.55;;;21.20;44.70;;;;;;4938529;28;20439;-84
2022/01/12 08:59:42;;;;;;;5.93;3.33;;;22.20;45.20;;;;;;4958896;28;20081;-83
2022/01/12 09:02:07;;;;;;;11.23;5.75;;;21.20;44.80;;;;;;4920056;28;20068;-85
2022/01/12 09:04:33;;;;;;;18.98;8.55;;;21.20;44.50;;;;;;4900155;29;20090;-87
2022/01/12 09:06:59;;;;;;;16.15;6.78;;;22.40;45.10;;;;;;4906663;29;20051;-87
2022/01/12 09:09:25;;;;;;;14.77;6.95;;;21.20;44.70;;;;;;4906814;29;20060;-88
2022/01/12 09:11:51;;;;;;;15.93;6.60;;;21.40;44.80;;;;;;4907708;29;20049;-87
2022/01/12 09:14:18;;;;;;;16.55;7.20;;;21.20;44.70;;;;;;4905069;29;20070;-88
2022/01/12 09:16:43;;;;;;;13.32;6.43;;;21.20;44.70;;;;;;4904594;29;20071;-88
2022/01/12 09:19:09;;;;;;;14.75;6.18;;;21.20;45.30;;;;;;4907105;29;20044;-87
2022/01/12 09:21:35;;;;;;;12.15;5.78;;;21.20;44.80;;;;;;4908826;29;20540;-87
2022/01/12 09:24:00;;;;;;;14.65;6.25;;;21.70;45.00;;;;;;4908964;29;20055;-87
2022/01/12 09:26:26;;;;;;;14.10;5.63;;;21.30;45.50;;;;;;4909792;29;20045;-87
2022/01/12 09:28:52;;;;;;;14.55;6.00;;;21.30;44.80;;;;;;4910961;28;20504;-88
2022/01/12 09:31:20;;;;;;;11.77;5.75;;;21.30;44.80;;;;;;4931050;29;20055;-87
2022/01/12 09:33:49;;;;;;;14.63;5.35;;;21.20;44.80;;;;;;4948692;28;20459;-88
2022/01/12 09:36:15;;;;;;;11.50;4.68;;;21.30;44.80;;;;;;4950566;29;20055;-87
2022/01/12 09:38:40;;;;;;;12.32;5.10;;;21.30;44.80;;;;;;4950492;29;20054;-88
2022/01/12 09:41:06;;;;;;;13.07;4.78;;;21.30;44.80;;;;;;4934980;28;20455;-86
2022/01/12 09:43:34;;;;;;;10.70;4.40;;;21.30;44.80;;;;;;4929952;29;20679;-87
2022/01/12 09:46:00;;;;;;;8.43;4.00;;;21.30;44.80;;;;;;4941472;29;20054;-80
2022/01/12 09:48:26;;;;;;;9.18;4.25;;;21.30;44.80;;;;;;4947845;28;20055;-80
2022/01/12 09:50:52;;;;;;;9.82;4.50;;;21.30;44.80;;;;;;4947837;28;20049;-83
2022/01/12 09:53:18;;;;;;;9.98;4.07;;;21.30;44.70;;;;;;4949608;29;20043;-82
2022/01/12 09:55:43;;;;;;;9.95;4.43;;;21.30;44.60;;;;;;4946464;28;20566;-85
2022/01/12 09:58:09;;;;;;;8.50;3.63;;;21.30;44.50;;;;;;4947848;29;20130;-85
2022/01/12 10:00:34;;;;;;;9.35;3.40;;;21.60;44.70;;;;;;4945150;28;20051;-87
2022/01/12 10:03:09;;;;;;;8.35;3.75;;;21.30;44.60;;;;;;4946610;29;20043;-85
2022/01/12 10:05:35;;;;;;;11.00;3.35;;;21.30;44.60;;;;;;4948998;29;20039;-84
2022/01/12 10:08:11;;;;;;;9.02;3.22;;;21.20;45.30;;;;;;4948366;28;20221;-84
2022/01/12 10:10:36;;;;;;;10.50;3.78;;;21.20;44.60;;;;;;4948744;29;20181;-85
2022/01/12 10:13:03;;;;;;;8.90;3.20;;;21.20;44.60;;;;;;4942988;29;20502;-79
2022/01/12 10:15:29;;;;;;;8.68;3.20;;;21.20;44.70;;;;;;4941894;29;20053;-80
2022/01/12 10:17:59;;;;;;;7.63;2.92;;;21.20;44.70;;;;;;4946674;29;20399;-83
2022/01/12 10:20:25;;;;;;;7.72;3.10;;;21.20;44.70;;;;;;4946578;28;20071;-84
2022/01/12 10:23:08;;;;;;;7.30;2.65;;;21.20;44.80;;;;;;4949169;28;20051;-85
2022/01/12 10:25:33;;;;;;;10.68;4.50;;;21.20;44.90;;;;;;4940276;28;20154;-88
2022/01/12 10:28:13;;;;;;;17.60;5.85;;;21.10;44.70;;;;;;4947055;29;20135;-88
2022/01/12 10:30:38;;;;;;;20.25;8.43;;;21.10;44.80;;;;;;4965084;28;20065;-89
2022/01/12 10:33:06;;;;;;;22.73;8.00;;;21.10;44.80;;;;;;4949326;28;20059;-87
2022/01/12 10:35:33;;;;;;;22.13;9.30;;;21.10;44.80;;;;;;4965978;28;20058;-87
2022/01/12 10:38:12;;;;;;;23.67;8.68;;;21.10;44.80;;;;;;4949069;29;20122;-88
2022/01/12 10:40:48;;;;;;;23.38;7.85;;;21.00;44.80;;;;;;4963870;28;20941;-83
2022/01/12 10:43:42;;;;;;;19.92;8.15;;;21.00;44.80;;;;;;4950609;28;20541;-83
2022/01/12 10:46:13;;;;;;;25.20;8.75;;;21.00;44.80;;;;;;4967870;28;20451;-83
2022/01/12 10:48:46;;;;;;;28.77;10.30;;;21.00;44.80;;;;;;4930555;29;20709;-83
2022/01/12 10:51:14;;;;;;;20.40;9.05;;;21.00;44.80;;;;;;4935616;29;20048;-86
2022/01/12 10:53:40;;;;;;;22.27;8.20;;;21.00;44.90;;;;;;4953429;28;20047;-86
2022/01/12 10:56:10;;;;;;;20.92;7.15;;;22.10;45.50;;;;;;4953397;29;20047;-86
2022/01/12 10:58:38;;;;;;;24.92;7.18;;;21.00;44.90;;;;;;4941332;28;20098;-85
2022/01/12 11:01:04;;;;;;;18.67;7.50;;;21.00;45.00;;;;;;4950259;29;20101;-85
2022/01/12 11:03:51;;;;;;;14.63;6.00;;;22.00;45.50;;;;;;4952455;28;20824;-85
2022/01/12 11:06:36;;;;;;;19.52;6.30;;;20.00;44.80;;;;;;4952472;29;20668;-85
2022/01/12 11:09:02;;;;;;;15.45;6.15;;;21.10;45.00;;;;;;4965642;28;20058;-86
2022/01/12 11:11:29;;;;;;;15.80;6.38;;;22.30;46.00;;;;;;4974258;28;20069;-85
2022/01/12 11:14:14;;;;;;;14.98;5.55;;;22.00;45.70;;;;;;4973676;28;20050;-85
2022/01/12 11:16:46;;;;;;;14.60;5.00;;;21.10;45.60;;;;;;4958867;28;20129;-85
2022/01/12 11:19:36;;;;;;;13.52;5.30;;;22.40;46.00;;;;;;4999194;23;20058;-85
2022/01/12 11:22:22;;;;;;;15.48;5.30;;;21.20;45.30;;;;;;4975605;28;20054;-85
2022/01/12 11:24:53;;;;;;;16.58;5.80;;;21.10;45.00;;;;;;4973149;28;20086;-85
2022/01/12 11:27:21;;;;;;;13.75;5.30;;;21.10;45.00;;;;;;4973691;28;20082;-85
2022/01/12 11:29:47;;;;;;;12.23;4.00;;;19.00;43.90;;;;;;4992004;28;20112;-85
2022/01/12 11:32:23;;;;;;;12.35;4.72;;;22.50;45.80;;;;;;4975776;28;20050;-85
2022/01/12 11:35:03;;;;;;;15.05;4.75;;;21.30;45.10;;;;;;4989656;28;20508;-85
2022/01/12 11:37:47;;;;;;;12.13;4.55;;;21.20;45.40;;;;;;4988149;28;20042;-85
2022/01/12 11:40:13;;;;;;;11.90;4.88;;;21.70;45.50;;;;;;4990232;28;20129;-85
2022/01/12 11:42:51;;;;;;;12.77;4.13;;;21.20;45.40;;;;;;5009901;28;20115;-85
2022/01/12 11:45:35;;;;;;;14.50;4.55;;;20.70;45.30;;;;;;5010070;28;20398;-85
2022/01/12 11:48:12;;;;;;;13.50;4.10;;;22.40;45.60;;;;;;5010661;28;20046;-84
2022/01/12 11:50:38;;;;;;;12.45;4.30;;;22.40;46.00;;;;;;5011216;28;20108;-86
2022/01/12 11:53:03;;;;;;;13.52;4.10;;;21.20;45.20;;;;;;4993857;28;20082;-86
2022/01/12 11:56:22;;;;;;;11.73;4.03;;;22.40;45.40;;;;;;4973305;28;20053;-85
2022/01/12 12:02:19;;;;;;;9.77;3.55;;;21.20;44.70;;;;;;5092614;23;20042;-86
2022/01/12 12:04:55;;;;;;;9.23;3.75;;;21.10;44.70;;;;;;4916182;29;20098;-87
2022/01/12 12:07:27;;;;;;;9.23;3.75;;;22.50;45.40;;;;;;4968004;28;20059;-86
2022/01/12 12:09:56;;;;;;;8.60;2.83;;;20.90;44.50;;;;;;4969260;28;20042;-89
2022/01/12 12:12:36;;;;;;;10.18;2.92;;;21.20;44.90;;;;;;4966476;28;20046;-89
2022/01/12 12:15:06;;;;;;;16.95;3.03;;;20.30;44.10;;;;;;4972510;28;20051;-89
2022/01/12 12:17:47;;;;;;;11.77;2.88;;;21.20;44.60;;;;;;4957977;28;20483;-89
2022/01/12 12:20:14;;;;;;;8.80;2.60;;;22.20;45.20;;;;;;4955940;28;20061;-85
2022/01/12 12:22:49;;;;;;;8.75;3.13;;;20.80;44.30;;;;;;4952827;28;20125;-86
2022/01/12 12:25:31;;;;;;;10.00;2.90;;;21.30;44.60;;;;;;4970717;28;20086;-79
2022/01/12 12:28:01;;;;;;;;;;;21.10;44.40;;;;;;4954898;28;20565;-86
2022/01/12 12:30:27;;;;;;;9.10;2.50;;;22.20;45.10;;;;;;4962777;28;19926;-85
2022/01/12 12:32:55;;;;;;;11.73;2.58;;;21.10;44.70;;;;;;4974408;28;20491;-85
2022/01/12 12:35:23;;;;;;;8.77;2.67;;;21.10;44.70;;;;;;4971806;28;20043;-87
2022/01/12 12:38:08;;;;;;;8.55;2.38;;;21.10;44.60;;;;;;4973914;28;20066;-85
2022/01/12 12:40:41;;;;;;;8.85;2.45;;;21.10;44.60;;;;;;4973989;28;20052;-84
2022/01/12 12:43:27;;;;;;;8.43;2.63;;;21.10;44.70;;;;;;4974907;28;20477;-88
2022/01/12 12:45:57;;;;;;;9.32;1.80;;;21.00;44.70;;;;;;4973049;28;20550;-84
2022/01/12 12:48:24;;;;;;;12.70;2.30;;;21.00;44.60;;;;;;4974202;28;20146;-83
2022/01/12 12:51:04;;;;;;;10.05;2.47;;;21.20;44.80;;;;;;4971966;28;20050;-87
2022/01/12 12:53:31;;;;;;;8.10;1.95;;;21.00;44.70;;;;;;4968821;28;20055;-86
2022/01/12 12:55:56;;;;;;;9.85;2.40;;;21.00;44.80;;;;;;4973239;28;20054;-88
2022/01/12 12:58:25;;;;;;;7.45;2.38;;;21.00;44.80;;;;;;4974112;28;20046;-85
2022/01/12 13:00:50;;;;;;;9.02;1.88;;;21.00;44.80;;;;;;4992617;28;20062;-85
2022/01/12 13:03:19;;;;;;;5.68;2.05;;;21.00;44.80;;;;;;4974282;28;20679;-85
2022/01/12 13:05:45;;;;;;;8.70;1.92;;;20.20;44.50;;;;;;4976851;28;20104;-86
2022/01/12 13:08:10;;;;;;;6.80;1.58;;;21.00;45.00;;;;;;4990886;28;20104;-86
2022/01/12 13:10:36;;;;;;;6.03;1.75;;;21.70;45.40;;;;;;4992355;28;20038;-85
2022/01/12 13:13:06;;;;;;;7.30;1.60;;;21.00;45.00;;;;;;4990680;28;20053;-85
2022/01/12 13:15:33;;;;;;;6.22;1.92;;;21.00;45.10;;;;;;4992705;28;20066;-85
2022/01/12 13:18:05;;;;;;;5.50;1.63;;;21.00;45.00;;;;;;4992727;28;20490;-85
2022/01/12 13:23:18;;;;;;;6.93;1.45;;;22.20;45.70;;;;;;4992875;28;20081;-85
2022/01/12 13:25:43;;;;;;;6.05;1.77;;;21.00;45.00;;;;;;4975472;28;20080;-85
2022/01/12 13:28:09;;;;;;;4.78;1.52;;;20.90;45.00;;;;;;4937111;28;20067;-83
2022/01/12 13:30:44;;;;;;;8.15;1.73;;;20.90;44.90;;;;;;4966420;28;20057;-86
2022/01/12 13:33:10;;;;;;;6.47;1.60;;;20.90;44.70;;;;;;4974268;28;20046;-86
2022/01/12 13:35:36;;;;;;;7.68;1.80;;;20.90;44.90;;;;;;4970033;28;20050;-86
2022/01/12 13:38:05;;;;;;;5.80;1.70;;;21.00;45.00;;;;;;4954576;28;20054;-87
2022/01/12 13:41:11;;;;;;;6.00;1.60;;;21.10;45.00;;;;;;4916823;29;20149;-91
2022/01/12 13:43:39;;;;;;;5.97;1.48;;;21.00;44.90;;;;;;4934181;29;20551;-87
2022/01/12 14:00:15;;;;;;;6.50;1.20;;;21.00;44.90;;;;;;5143660;23;20049;-94
2022/01/12 14:02:56;;;;;;;6.25;1.35;;;22.00;45.40;;;;;;5010745;28;20081;-94
2022/01/12 14:05:28;;;;;;;5.72;1.30;;;21.60;46.30;;;;;;4987893;28;20060;-90
2022/01/12 14:08:14;;;;;;;4.07;0.90;;;22.20;45.70;;;;;;4985459;28;20046;-93
2022/01/12 14:10:44;;;;;;;3.58;0.90;;;21.40;45.40;;;;;;4999893;28;20045;-91
2022/01/12 14:16:16;;;;;;;25.58;9.05;;;22.70;45.70;;;;;;5003497;28;20113;-90
2022/01/12 14:19:09;;;;;;;28.05;9.60;;;22.30;45.70;;;;;;5011039;28;20132;-90
2022/01/12 14:21:41;;;;;;;47.50;18.48;;;21.20;45.00;;;;;;5011445;28;20086;-94
2022/01/12 14:26:50;;;;;;;100.65;34.90;;;21.30;45.00;;;;;;5037979;23;20344;-92
2022/01/12 14:29:16;;;;;;;99.38;33.42;;;22.30;45.90;;;;;;4975176;28;20081;-91
2022/01/12 14:31:57;;;;;;;71.65;23.75;;;21.50;45.40;;;;;;4991934;28;20461;-94
2022/01/12 14:34:23;;;;;;;61.50;22.20;;;21.20;44.80;;;;;;5096988;23;20056;-90
2022/01/12 14:36:51;;;;;;;65.60;24.63;;;22.80;45.70;;;;;;5011291;28;20046;-91
2022/01/12 14:39:19;;;;;;;63.22;23.65;;;22.00;45.40;;;;;;5012743;28;20501;-91
2022/01/12 14:41:54;;;;;;;63.63;23.50;;;21.20;45.00;;;;;;5011621;28;20050;-92
2022/01/12 14:44:24;;;;;;;62.40;21.83;;;22.60;45.70;;;;;;5010179;28;20089;-90
2022/01/12 14:47:23;;;;;;;60.75;22.45;;;22.10;46.00;;;;;;5014366;28;20091;-94
2022/01/12 14:50:34;;;;;;;50.40;19.58;;;22.50;46.20;;;;;;5014675;28;20049;-94